sensor_id;sensor_type;location;lat;lon;timestamp;P1;durP1;ratioP1;P2;durP2;ratioP2
44143;SDS011;68165;51.920;4.492;2023-04-01T00:00:20;49.75;;;12.50;;
44143;SDS011;68165;51.920;4.492;2023-04-01T00:02:45;52.10;;;12.20;;
44143;SDS011;68165;51.920;4.492;2023-04-01T00:05:11;38.95;;;12.18;;
44143;SDS011;68165;51.920;4.492;2023-04-01T00:07:38;42.75;;;11.32;;
44143;SDS011;68165;51.920;4.492;2023-04-01T00:10:05;49.97;;;12.00;;
44143;SDS011;68165;51.920;4.492;2023-04-01T00:12:32;41.75;;;12.40;;
44143;SDS011;68165;51.920;4.492;2023-04-01T00:14:58;36.20;;;12.27;;
44143;SDS011;68165;51.920;4.492;2023-04-01T00:17:23;40.25;;;11.60;;
44143;SDS011;68165;51.920;4.492;2023-04-01T00:19:49;37.80;;;11.80;;
44143;SDS011;68165;51.920;4.492;2023-04-01T00:22:14;46.72;;;11.13;;
44143;SDS011;68165;51.920;4.492;2023-04-01T00:24:39;32.78;;;10.00;;
44143;SDS011;68165;51.920;4.492;2023-04-01T00:27:05;52.83;;;11.10;;
44143;SDS011;68165;51.920;4.492;2023-04-01T00:29:30;42.30;;;11.50;;
44143;SDS011;68165;51.920;4.492;2023-04-01T00:31:56;38.58;;;10.30;;
44143;SDS011;68165;51.920;4.492;2023-04-01T00:34:22;45.75;;;11.05;;
44143;SDS011;68165;51.920;4.492;2023-04-01T00:36:50;42.83;;;10.70;;
44143;SDS011;68165;51.920;4.492;2023-04-01T00:39:17;45.03;;;11.68;;
44143;SDS011;68165;51.920;4.492;2023-04-01T00:41:42;47.33;;;11.77;;
44143;SDS011;68165;51.920;4.492;2023-04-01T00:44:14;45.95;;;13.13;;
44143;SDS011;68165;51.920;4.492;2023-04-01T00:46:45;44.03;;;12.68;;
44143;SDS011;68165;51.920;4.492;2023-04-01T00:49:11;42.47;;;11.18;;
44143;SDS011;68165;51.920;4.492;2023-04-01T00:51:38;46.88;;;12.45;;
44143;SDS011;68165;51.920;4.492;2023-04-01T00:54:05;44.97;;;12.18;;
44143;SDS011;68165;51.920;4.492;2023-04-01T00:56:34;45.63;;;12.02;;
44143;SDS011;68165;51.920;4.492;2023-04-01T00:59:04;42.78;;;12.35;;
44143;SDS011;68165;51.920;4.492;2023-04-01T01:01:33;38.90;;;12.18;;
44143;SDS011;68165;51.920;4.492;2023-04-01T01:04:02;40.78;;;11.30;;
44143;SDS011;68165;51.920;4.492;2023-04-01T01:09:17;38.13;;;10.65;;
44143;SDS011;68165;51.920;4.492;2023-04-01T01:12:11;36.10;;;10.45;;
44143;SDS011;68165;51.920;4.492;2023-04-01T01:27:39;28.10;;;8.60;;
44143;SDS011;68165;51.920;4.492;2023-04-01T01:35:25;26.77;;;7.80;;
44143;SDS011;68165;51.920;4.492;2023-04-01T01:37:57;22.63;;;7.43;;
44143;SDS011;68165;51.920;4.492;2023-04-01T01:40:26;25.58;;;8.38;;
44143;SDS011;68165;51.920;4.492;2023-04-01T01:42:56;27.33;;;7.65;;
44143;SDS011;68165;51.920;4.492;2023-04-01T01:45:26;23.90;;;7.35;;
44143;SDS011;68165;51.920;4.492;2023-04-01T01:47:52;24.38;;;7.15;;
44143;SDS011;68165;51.920;4.492;2023-04-01T01:50:20;21.27;;;7.05;;
44143;SDS011;68165;51.920;4.492;2023-04-01T01:52:47;17.55;;;6.68;;
44143;SDS011;68165;51.920;4.492;2023-04-01T01:55:26;20.23;;;6.75;;
44143;SDS011;68165;51.920;4.492;2023-04-01T01:57:55;19.48;;;5.88;;
44143;SDS011;68165;51.920;4.492;2023-04-01T02:00:24;23.92;;;6.57;;
44143;SDS011;68165;51.920;4.492;2023-04-01T02:02:51;15.80;;;6.20;;
44143;SDS011;68165;51.920;4.492;2023-04-01T02:05:19;17.05;;;5.40;;
44143;SDS011;68165;51.920;4.492;2023-04-01T02:08:10;29.83;;;7.03;;
44143;SDS011;68165;51.920;4.492;2023-04-01T02:10:39;17.30;;;5.65;;
44143;SDS011;68165;51.920;4.492;2023-04-01T02:13:16;21.05;;;6.00;;
44143;SDS011;68165;51.920;4.492;2023-04-01T02:15:49;19.50;;;6.80;;
44143;SDS011;68165;51.920;4.492;2023-04-01T02:18:17;15.68;;;5.78;;
44143;SDS011;68165;51.920;4.492;2023-04-01T02:20:44;14.25;;;6.38;;
44143;SDS011;68165;51.920;4.492;2023-04-01T02:23:10;20.67;;;6.97;;
44143;SDS011;68165;51.920;4.492;2023-04-01T02:25:37;16.95;;;5.75;;
44143;SDS011;68165;51.920;4.492;2023-04-01T02:28:05;16.77;;;5.68;;
44143;SDS011;68165;51.920;4.492;2023-04-01T02:30:32;10.65;;;4.80;;
44143;SDS011;68165;51.920;4.492;2023-04-01T02:33:00;13.93;;;4.85;;
44143;SDS011;68165;51.920;4.492;2023-04-01T02:35:26;12.32;;;4.57;;
44143;SDS011;68165;51.920;4.492;2023-04-01T02:37:53;13.38;;;4.53;;
44143;SDS011;68165;51.920;4.492;2023-04-01T02:40:19;15.80;;;4.18;;
44143;SDS011;68165;51.920;4.492;2023-04-01T02:42:45;12.35;;;4.88;;
44143;SDS011;68165;51.920;4.492;2023-04-01T02:45:11;13.60;;;3.28;;
44143;SDS011;68165;51.920;4.492;2023-04-01T02:47:37;9.95;;;3.45;;
44143;SDS011;68165;51.920;4.492;2023-04-01T02:50:03;16.63;;;3.80;;
44143;SDS011;68165;51.920;4.492;2023-04-01T02:52:30;8.45;;;3.33;;
44143;SDS011;68165;51.920;4.492;2023-04-01T02:54:56;8.40;;;3.88;;
44143;SDS011;68165;51.920;4.492;2023-04-01T02:57:22;9.43;;;3.40;;
44143;SDS011;68165;51.920;4.492;2023-04-01T02:59:48;12.88;;;3.60;;
44143;SDS011;68165;51.920;4.492;2023-04-01T03:02:14;10.77;;;3.67;;
44143;SDS011;68165;51.920;4.492;2023-04-01T03:04:40;12.80;;;3.50;;
44143;SDS011;68165;51.920;4.492;2023-04-01T03:07:06;12.82;;;4.13;;
44143;SDS011;68165;51.920;4.492;2023-04-01T03:09:31;7.85;;;3.83;;
44143;SDS011;68165;51.920;4.492;2023-04-01T03:11:57;11.10;;;4.05;;
44143;SDS011;68165;51.920;4.492;2023-04-01T03:14:23;16.05;;;5.50;;
44143;SDS011;68165;51.920;4.492;2023-04-01T03:16:48;18.23;;;6.13;;
44143;SDS011;68165;51.920;4.492;2023-04-01T03:19:14;17.70;;;6.28;;
44143;SDS011;68165;51.920;4.492;2023-04-01T03:21:39;18.95;;;7.57;;
44143;SDS011;68165;51.920;4.492;2023-04-01T03:24:05;21.17;;;8.38;;
44143;SDS011;68165;51.920;4.492;2023-04-01T03:26:31;25.45;;;9.20;;
44143;SDS011;68165;51.920;4.492;2023-04-01T03:28:57;30.02;;;10.73;;
44143;SDS011;68165;51.920;4.492;2023-04-01T03:31:22;31.25;;;10.45;;
44143;SDS011;68165;51.920;4.492;2023-04-01T03:33:48;39.08;;;10.10;;
44143;SDS011;68165;51.920;4.492;2023-04-01T03:36:14;37.20;;;11.85;;
44143;SDS011;68165;51.920;4.492;2023-04-01T03:38:40;33.90;;;10.57;;
44143;SDS011;68165;51.920;4.492;2023-04-01T03:41:07;47.97;;;12.07;;
44143;SDS011;68165;51.920;4.492;2023-04-01T03:43:32;38.85;;;11.23;;
44143;SDS011;68165;51.920;4.492;2023-04-01T03:45:58;39.42;;;11.98;;
44143;SDS011;68165;51.920;4.492;2023-04-01T03:48:24;45.22;;;11.32;;
44143;SDS011;68165;51.920;4.492;2023-04-01T03:50:50;45.53;;;12.10;;
44143;SDS011;68165;51.920;4.492;2023-04-01T03:53:16;50.25;;;11.68;;
44143;SDS011;68165;51.920;4.492;2023-04-01T03:55:41;38.78;;;11.60;;
44143;SDS011;68165;51.920;4.492;2023-04-01T03:58:07;42.58;;;11.50;;
44143;SDS011;68165;51.920;4.492;2023-04-01T04:00:32;43.13;;;10.77;;
44143;SDS011;68165;51.920;4.492;2023-04-01T04:02:58;35.03;;;10.35;;
44143;SDS011;68165;51.920;4.492;2023-04-01T04:05:24;29.42;;;9.10;;
44143;SDS011;68165;51.920;4.492;2023-04-01T04:07:50;33.78;;;9.73;;
44143;SDS011;68165;51.920;4.492;2023-04-01T04:10:16;41.35;;;11.80;;
44143;SDS011;68165;51.920;4.492;2023-04-01T04:12:42;38.88;;;9.85;;
44143;SDS011;68165;51.920;4.492;2023-04-01T04:15:08;31.42;;;9.43;;
44143;SDS011;68165;51.920;4.492;2023-04-01T04:17:34;36.38;;;9.68;;
44143;SDS011;68165;51.920;4.492;2023-04-01T04:20:00;30.80;;;8.93;;
44143;SDS011;68165;51.920;4.492;2023-04-01T04:22:26;25.00;;;7.82;;
44143;SDS011;68165;51.920;4.492;2023-04-01T04:24:52;26.98;;;7.68;;
44143;SDS011;68165;51.920;4.492;2023-04-01T04:27:17;23.13;;;8.23;;
44143;SDS011;68165;51.920;4.492;2023-04-01T04:29:42;25.13;;;8.07;;
44143;SDS011;68165;51.920;4.492;2023-04-01T04:32:09;23.65;;;7.05;;
44143;SDS011;68165;51.920;4.492;2023-04-01T04:34:35;26.10;;;7.53;;
44143;SDS011;68165;51.920;4.492;2023-04-01T04:37:01;23.83;;;6.93;;
44143;SDS011;68165;51.920;4.492;2023-04-01T04:39:26;25.77;;;7.50;;
44143;SDS011;68165;51.920;4.492;2023-04-01T04:41:52;32.17;;;8.15;;
44143;SDS011;68165;51.920;4.492;2023-04-01T04:44:17;22.75;;;8.30;;
44143;SDS011;68165;51.920;4.492;2023-04-01T04:46:42;23.55;;;8.82;;
44143;SDS011;68165;51.920;4.492;2023-04-01T04:49:08;32.30;;;10.27;;
44143;SDS011;68165;51.920;4.492;2023-04-01T04:51:33;25.95;;;9.23;;
44143;SDS011;68165;51.920;4.492;2023-04-01T04:54:00;31.88;;;9.20;;
44143;SDS011;68165;51.920;4.492;2023-04-01T04:56:27;29.50;;;9.73;;
44143;SDS011;68165;51.920;4.492;2023-04-01T04:58:52;34.95;;;10.02;;
44143;SDS011;68165;51.920;4.492;2023-04-01T05:01:18;31.25;;;11.00;;
44143;SDS011;68165;51.920;4.492;2023-04-01T05:03:43;30.40;;;10.27;;
44143;SDS011;68165;51.920;4.492;2023-04-01T05:06:09;30.48;;;10.20;;
44143;SDS011;68165;51.920;4.492;2023-04-01T05:08:37;29.38;;;9.65;;
44143;SDS011;68165;51.920;4.492;2023-04-01T05:11:06;32.92;;;10.70;;
44143;SDS011;68165;51.920;4.492;2023-04-01T05:13:34;34.42;;;11.80;;
44143;SDS011;68165;51.920;4.492;2023-04-01T05:16:00;36.60;;;11.60;;
44143;SDS011;68165;51.920;4.492;2023-04-01T05:18:25;37.30;;;12.45;;
44143;SDS011;68165;51.920;4.492;2023-04-01T05:20:52;43.15;;;14.18;;
44143;SDS011;68165;51.920;4.492;2023-04-01T05:23:18;29.38;;;10.88;;
44143;SDS011;68165;51.920;4.492;2023-04-01T05:25:46;32.95;;;11.63;;
44143;SDS011;68165;51.920;4.492;2023-04-01T05:28:12;31.13;;;12.02;;
44143;SDS011;68165;51.920;4.492;2023-04-01T05:30:41;38.92;;;13.15;;
44143;SDS011;68165;51.920;4.492;2023-04-01T05:33:08;33.33;;;12.25;;
44143;SDS011;68165;51.920;4.492;2023-04-01T05:35:34;34.80;;;12.20;;
44143;SDS011;68165;51.920;4.492;2023-04-01T05:38:00;34.17;;;13.02;;
44143;SDS011;68165;51.920;4.492;2023-04-01T05:40:25;38.13;;;13.80;;
44143;SDS011;68165;51.920;4.492;2023-04-01T05:42:52;37.38;;;11.85;;
44143;SDS011;68165;51.920;4.492;2023-04-01T05:45:17;39.40;;;13.25;;
44143;SDS011;68165;51.920;4.492;2023-04-01T05:47:43;44.72;;;14.20;;
44143;SDS011;68165;51.920;4.492;2023-04-01T05:50:09;31.75;;;12.52;;
44143;SDS011;68165;51.920;4.492;2023-04-01T05:52:36;36.58;;;11.85;;
44143;SDS011;68165;51.920;4.492;2023-04-01T05:55:02;32.47;;;13.50;;
44143;SDS011;68165;51.920;4.492;2023-04-01T05:57:27;31.95;;;11.27;;
44143;SDS011;68165;51.920;4.492;2023-04-01T05:59:53;31.00;;;12.52;;
44143;SDS011;68165;51.920;4.492;2023-04-01T06:02:18;35.40;;;13.00;;
44143;SDS011;68165;51.920;4.492;2023-04-01T06:04:44;34.10;;;12.75;;
44143;SDS011;68165;51.920;4.492;2023-04-01T06:07:13;27.63;;;11.32;;
44143;SDS011;68165;51.920;4.492;2023-04-01T06:09:41;29.13;;;11.52;;
44143;SDS011;68165;51.920;4.492;2023-04-01T06:20:57;30.92;;;10.95;;
44143;SDS011;68165;51.920;4.492;2023-04-01T06:23:57;30.27;;;12.38;;
44143;SDS011;68165;51.920;4.492;2023-04-01T06:26:30;35.00;;;12.30;;
44143;SDS011;68165;51.920;4.492;2023-04-01T06:49:04;27.67;;;11.57;;
44143;SDS011;68165;51.920;4.492;2023-04-01T06:51:52;24.88;;;11.30;;
44143;SDS011;68165;51.920;4.492;2023-04-01T06:54:50;31.42;;;11.00;;
44143;SDS011;68165;51.920;4.492;2023-04-01T06:59:47;22.80;;;10.07;;
44143;SDS011;68165;51.920;4.492;2023-04-01T07:04:40;27.00;;;9.82;;
44143;SDS011;68165;51.920;4.492;2023-04-01T07:07:52;22.92;;;10.23;;
44143;SDS011;68165;51.920;4.492;2023-04-01T07:13:11;25.60;;;9.43;;
44143;SDS011;68165;51.920;4.492;2023-04-01T07:15:43;24.50;;;10.50;;
44143;SDS011;68165;51.920;4.492;2023-04-01T07:18:25;17.15;;;8.00;;
44143;SDS011;68165;51.920;4.492;2023-04-01T07:20:57;22.42;;;10.30;;
44143;SDS011;68165;51.920;4.492;2023-04-01T07:23:42;22.40;;;8.80;;
44143;SDS011;68165;51.920;4.492;2023-04-01T07:26:15;18.95;;;7.07;;
44143;SDS011;68165;51.920;4.492;2023-04-01T07:28:45;15.48;;;6.63;;
44143;SDS011;68165;51.920;4.492;2023-04-01T07:34:01;14.73;;;5.35;;
44143;SDS011;68165;51.920;4.492;2023-04-01T07:39:19;11.25;;;4.95;;
44143;SDS011;68165;51.920;4.492;2023-04-01T07:42:11;9.68;;;5.00;;
44143;SDS011;68165;51.920;4.492;2023-04-01T07:50:20;7.15;;;3.33;;
44143;SDS011;68165;51.920;4.492;2023-04-01T08:00:56;7.95;;;3.78;;
44143;SDS011;68165;51.920;4.492;2023-04-01T08:03:31;12.45;;;4.40;;
44143;SDS011;68165;51.920;4.492;2023-04-01T08:08:47;10.48;;;4.53;;
44143;SDS011;68165;51.920;4.492;2023-04-01T08:11:22;13.80;;;5.32;;
44143;SDS011;68165;51.920;4.492;2023-04-01T08:13:53;14.93;;;5.05;;
44143;SDS011;68165;51.920;4.492;2023-04-01T08:16:46;13.65;;;5.75;;
44143;SDS011;68165;51.920;4.492;2023-04-01T08:22:22;13.40;;;5.60;;
44143;SDS011;68165;51.920;4.492;2023-04-01T08:24:52;15.05;;;5.82;;
44143;SDS011;68165;51.920;4.492;2023-04-01T08:27:41;16.92;;;7.28;;
44143;SDS011;68165;51.920;4.492;2023-04-01T08:32:57;16.10;;;6.88;;
44143;SDS011;68165;51.920;4.492;2023-04-01T08:35:34;16.35;;;5.85;;
44143;SDS011;68165;51.920;4.492;2023-04-01T08:38:21;15.98;;;7.25;;
44143;SDS011;68165;51.920;4.492;2023-04-01T08:44:16;18.33;;;6.93;;
44143;SDS011;68165;51.920;4.492;2023-04-01T09:03:37;22.75;;;7.00;;
44143;SDS011;68165;51.920;4.492;2023-04-01T09:31:38;17.65;;;5.90;;
44143;SDS011;68165;51.920;4.492;2023-04-01T09:54:19;17.27;;;6.38;;
44143;SDS011;68165;51.920;4.492;2023-04-01T09:57:05;20.20;;;7.10;;
44143;SDS011;68165;51.920;4.492;2023-04-01T09:59:47;21.50;;;7.13;;
44143;SDS011;68165;51.920;4.492;2023-04-01T10:20:21;18.10;;;6.70;;
44143;SDS011;68165;51.920;4.492;2023-04-01T10:29:14;14.15;;;5.45;;
44143;SDS011;68165;51.920;4.492;2023-04-01T10:32:10;13.18;;;5.47;;
44143;SDS011;68165;51.920;4.492;2023-04-01T10:45:46;14.95;;;5.07;;
44143;SDS011;68165;51.920;4.492;2023-04-01T11:04:41;10.60;;;4.50;;
44143;SDS011;68165;51.920;4.492;2023-04-01T11:10:04;13.50;;;4.85;;
44143;SDS011;68165;51.920;4.492;2023-04-01T11:23:53;18.80;;;7.40;;
44143;SDS011;68165;51.920;4.492;2023-04-01T11:31:50;18.92;;;6.30;;
44143;SDS011;68165;51.920;4.492;2023-04-01T11:40:20;18.67;;;6.63;;
44143;SDS011;68165;51.920;4.492;2023-04-01T11:56:52;15.85;;;6.65;;
44143;SDS011;68165;51.920;4.492;2023-04-01T11:59:30;24.88;;;8.48;;
44143;SDS011;68165;51.920;4.492;2023-04-01T12:13:35;23.58;;;8.65;;
44143;SDS011;68165;51.920;4.492;2023-04-01T12:26:52;20.50;;;7.30;;
44143;SDS011;68165;51.920;4.492;2023-04-01T12:29:41;18.80;;;6.50;;
44143;SDS011;68165;51.920;4.492;2023-04-01T12:32:25;19.23;;;6.78;;
44143;SDS011;68165;51.920;4.492;2023-04-01T12:37:35;18.52;;;6.38;;
44143;SDS011;68165;51.920;4.492;2023-04-01T14:13:41;13.27;;;5.35;;
44143;SDS011;68165;51.920;4.492;2023-04-01T14:28:03;14.68;;;5.15;;
44143;SDS011;68165;51.920;4.492;2023-04-01T14:33:51;13.60;;;4.90;;
44143;SDS011;68165;51.920;4.492;2023-04-01T14:42:03;13.30;;;4.72;;
44143;SDS011;68165;51.920;4.492;2023-04-01T14:44:49;15.98;;;4.93;;
44143;SDS011;68165;51.920;4.492;2023-04-01T14:50:16;15.98;;;5.20;;
44143;SDS011;68165;51.920;4.492;2023-04-01T14:58:13;14.20;;;5.05;;
44143;SDS011;68165;51.920;4.492;2023-04-01T15:17:05;21.58;;;4.78;;
44143;SDS011;68165;51.920;4.492;2023-04-01T15:27:42;21.95;;;5.93;;
44143;SDS011;68165;51.920;4.492;2023-04-01T15:59:51;15.77;;;4.40;;
